KBGE

Decatur County Industrial Airpark

Bainbridge, Georgia, USA
METAR KBGE 191655Z AUTO 22004KT 10SM 32/22 A3004 RMK AO2
Observed Flight Rules
Aug-19 @ 16:55 UTC (18 minutes ago)
Wind Visibility
220° at 4 knots 10 miles
Temperatures Readings
Current 32°C / 90°F
Dewpoint 22°C / 72°F
Humidity 55%
Altimeter 30.04" Hg
Pressure 1017 hPa
Elevation 43
METAR KBGE 191655Z AUTO 22004KT 10SM 32/22 A3004 RMK AO2
Observed Flight Rules
Aug-19 @ 16:55 UTC
(18 minutes ago)
Wind Visibility
220° at 4 knots 10 miles
Temperature Dewpoint
32°C / 90°F 22°C / 72°F
Humidity Altimeter Pressure
55% 30.04" Hg 1017 hPa